sensor_id;sensor_type;location;lat;lon;timestamp;pressure;altitude;pressure_sealevel;temperature;humidity
1207;BME280;593;53.184;8.216;2022-12-18T00:00:56;102501.28;;;-0.04;100.00
1207;BME280;593;53.184;8.216;2022-12-18T00:03:21;102501.78;;;-0.01;100.00
1207;BME280;593;53.184;8.216;2022-12-18T00:05:50;102500.63;;;0.02;100.00
1207;BME280;593;53.184;8.216;2022-12-18T00:08:16;102491.44;;;0.05;100.00
1207;BME280;593;53.184;8.216;2022-12-18T00:10:42;102487.06;;;0.04;100.00
1207;BME280;593;53.184;8.216;2022-12-18T00:13:08;102482.22;;;0.07;100.00
1207;BME280;593;53.184;8.216;2022-12-18T00:15:35;102487.41;;;0.09;100.00
1207;BME280;593;53.184;8.216;2022-12-18T00:18:00;102475.84;;;0.08;100.00
1207;BME280;593;53.184;8.216;2022-12-18T00:20:25;102477.69;;;0.08;100.00
1207;BME280;593;53.184;8.216;2022-12-18T00:22:54;102485.25;;;0.12;100.00
1207;BME280;593;53.184;8.216;2022-12-18T00:25:20;102482.56;;;0.12;100.00
1207;BME280;593;53.184;8.216;2022-12-18T00:27:45;102480.03;;;0.11;100.00
1207;BME280;593;53.184;8.216;2022-12-18T00:30:11;102476.03;;;0.15;100.00
1207;BME280;593;53.184;8.216;2022-12-18T00:32:36;102473.38;;;0.15;100.00
1207;BME280;593;53.184;8.216;2022-12-18T00:35:02;102474.88;;;0.17;100.00
1207;BME280;593;53.184;8.216;2022-12-18T00:37:28;102468.66;;;0.17;100.00
1207;BME280;593;53.184;8.216;2022-12-18T00:39:54;102474.69;;;0.19;100.00
1207;BME280;593;53.184;8.216;2022-12-18T00:42:19;102471.34;;;0.17;100.00
1207;BME280;593;53.184;8.216;2022-12-18T00:45:28;102479.19;;;0.18;100.00
1207;BME280;593;53.184;8.216;2022-12-18T00:47:55;102473.84;;;0.18;100.00
1207;BME280;593;53.184;8.216;2022-12-18T00:50:22;102478.72;;;0.15;100.00
1207;BME280;593;53.184;8.216;2022-12-18T00:52:48;102487.06;;;0.20;100.00
1207;BME280;593;53.184;8.216;2022-12-18T00:55:14;102481.88;;;0.18;100.00
1207;BME280;593;53.184;8.216;2022-12-18T00:57:40;102488.38;;;0.16;100.00
1207;BME280;593;53.184;8.216;2022-12-18T01:00:08;102487.06;;;0.12;100.00
1207;BME280;593;53.184;8.216;2022-12-18T01:02:34;102490.41;;;0.14;100.00
1207;BME280;593;53.184;8.216;2022-12-18T01:05:00;102492.09;;;0.15;100.00
1207;BME280;593;53.184;8.216;2022-12-18T01:07:25;102497.44;;;0.15;100.00
1207;BME280;593;53.184;8.216;2022-12-18T01:09:50;102504.09;;;0.11;100.00
1207;BME280;593;53.184;8.216;2022-12-18T01:12:16;102502.28;;;0.11;100.00
1207;BME280;593;53.184;8.216;2022-12-18T01:14:41;102501.63;;;0.09;100.00
1207;BME280;593;53.184;8.216;2022-12-18T01:17:07;102500.13;;;0.07;100.00
1207;BME280;593;53.184;8.216;2022-12-18T01:19:32;102507.13;;;0.08;100.00
1207;BME280;593;53.184;8.216;2022-12-18T01:21:58;102505.97;;;0.02;100.00
1207;BME280;593;53.184;8.216;2022-12-18T01:24:24;102517.47;;;0.03;100.00
1207;BME280;593;53.184;8.216;2022-12-18T01:26:49;102515.81;;;0.02;100.00
1207;BME280;593;53.184;8.216;2022-12-18T01:29:15;102516.47;;;-0.05;99.67
1207;BME280;593;53.184;8.216;2022-12-18T01:31:40;102527.19;;;-0.05;99.71
1207;BME280;593;53.184;8.216;2022-12-18T01:34:06;102519.34;;;-0.06;98.89
1207;BME280;593;53.184;8.216;2022-12-18T01:36:34;102531.88;;;-0.07;98.31
1207;BME280;593;53.184;8.216;2022-12-18T01:39:01;102526.19;;;-0.12;98.81
1207;BME280;593;53.184;8.216;2022-12-18T01:41:29;102531.53;;;-0.12;98.44
1207;BME280;593;53.184;8.216;2022-12-18T01:47:20;102530.69;;;-0.20;97.92
1207;BME280;593;53.184;8.216;2022-12-18T01:49:47;102535.34;;;-0.22;97.71
1207;BME280;593;53.184;8.216;2022-12-18T01:52:15;102550.59;;;-0.23;97.96
1207;BME280;593;53.184;8.216;2022-12-18T01:54:41;102544.72;;;-0.26;97.11
1207;BME280;593;53.184;8.216;2022-12-18T01:57:07;102539.22;;;-0.33;97.10
1207;BME280;593;53.184;8.216;2022-12-18T02:02:12;102531.84;;;-0.39;96.55
1207;BME280;593;53.184;8.216;2022-12-18T02:04:37;102540.50;;;-0.37;96.59
1207;BME280;593;53.184;8.216;2022-12-18T02:07:29;102554.19;;;-0.40;96.03
1207;BME280;593;53.184;8.216;2022-12-18T02:15:13;102541.00;;;-0.49;95.83
1207;BME280;593;53.184;8.216;2022-12-18T02:17:51;102539.66;;;-0.53;95.44
1207;BME280;593;53.184;8.216;2022-12-18T02:20:25;102531.28;;;-0.58;95.44
1207;BME280;593;53.184;8.216;2022-12-18T02:28:20;102527.44;;;-0.64;95.30
1207;BME280;593;53.184;8.216;2022-12-18T02:30:48;102531.09;;;-0.65;95.69
1207;BME280;593;53.184;8.216;2022-12-18T02:33:17;102515.38;;;-0.76;94.99
1207;BME280;593;53.184;8.216;2022-12-18T02:35:45;102525.75;;;-0.73;95.22
1207;BME280;593;53.184;8.216;2022-12-18T02:38:12;102522.25;;;-0.74;94.74
1207;BME280;593;53.184;8.216;2022-12-18T02:40:40;102525.41;;;-0.78;94.19
1207;BME280;593;53.184;8.216;2022-12-18T02:43:12;102516.88;;;-0.82;94.10
1207;BME280;593;53.184;8.216;2022-12-18T02:45:53;102516.53;;;-0.87;93.96
1207;BME280;593;53.184;8.216;2022-12-18T02:48:23;102514.69;;;-0.86;94.19
1207;BME280;593;53.184;8.216;2022-12-18T02:51:14;102498.94;;;-0.97;93.76
1207;BME280;593;53.184;8.216;2022-12-18T02:53:45;102528.00;;;-0.94;94.09
1207;BME280;593;53.184;8.216;2022-12-18T02:56:16;102519.50;;;-0.98;93.96
1207;BME280;593;53.184;8.216;2022-12-18T02:59:07;102520.97;;;-1.03;93.63
1207;BME280;593;53.184;8.216;2022-12-18T03:01:36;102528.97;;;-1.03;93.54
1207;BME280;593;53.184;8.216;2022-12-18T03:04:11;102526.94;;;-1.09;93.80
1207;BME280;593;53.184;8.216;2022-12-18T03:06:43;102518.56;;;-1.14;93.91
1207;BME280;593;53.184;8.216;2022-12-18T03:09:19;102501.88;;;-1.16;93.40
1207;BME280;593;53.184;8.216;2022-12-18T03:11:50;102502.72;;;-1.16;93.45
1207;BME280;593;53.184;8.216;2022-12-18T03:14:37;102489.53;;;-1.25;93.51
1207;BME280;593;53.184;8.216;2022-12-18T03:17:05;102509.38;;;-1.20;93.47
1207;BME280;593;53.184;8.216;2022-12-18T03:19:37;102497.66;;;-1.27;93.71
1207;BME280;593;53.184;8.216;2022-12-18T03:22:05;102492.81;;;-1.32;93.97
1207;BME280;593;53.184;8.216;2022-12-18T03:24:33;102487.44;;;-1.40;93.58
1207;BME280;593;53.184;8.216;2022-12-18T03:27:01;102522.53;;;-1.26;93.88
1207;BME280;593;53.184;8.216;2022-12-18T03:29:33;102499.63;;;-1.37;93.04
1207;BME280;593;53.184;8.216;2022-12-18T03:32:04;102514.28;;;-1.41;93.32
1207;BME280;593;53.184;8.216;2022-12-18T03:34:34;102503.38;;;-1.48;93.53
1207;BME280;593;53.184;8.216;2022-12-18T03:37:01;102530.78;;;-1.38;93.42
1207;BME280;593;53.184;8.216;2022-12-18T03:39:26;102512.91;;;-1.45;92.82
1207;BME280;593;53.184;8.216;2022-12-18T03:42:07;102515.25;;;-1.42;93.23
1207;BME280;593;53.184;8.216;2022-12-18T03:44:38;102506.06;;;-1.48;92.69
1207;BME280;593;53.184;8.216;2022-12-18T03:52:53;102505.81;;;-1.62;92.30
1207;BME280;593;53.184;8.216;2022-12-18T03:55:23;102513.81;;;-1.62;91.92
1207;BME280;593;53.184;8.216;2022-12-18T03:57:52;102498.75;;;-1.71;91.75
1207;BME280;593;53.184;8.216;2022-12-18T04:00:19;102504.75;;;-1.69;91.66
1207;BME280;593;53.184;8.216;2022-12-18T04:02:48;102508.59;;;-1.72;91.78
1207;BME280;593;53.184;8.216;2022-12-18T04:05:15;102507.91;;;-1.74;92.23
1207;BME280;593;53.184;8.216;2022-12-18T04:07:43;102503.34;;;-1.81;91.87
1207;BME280;593;53.184;8.216;2022-12-18T04:10:10;102524.06;;;-1.75;91.69
1207;BME280;593;53.184;8.216;2022-12-18T04:12:37;102519.91;;;-1.78;91.90
1207;BME280;593;53.184;8.216;2022-12-18T04:15:02;102517.53;;;-1.81;92.03
1207;BME280;593;53.184;8.216;2022-12-18T04:17:28;102505.13;;;-1.90;91.29
1207;BME280;593;53.184;8.216;2022-12-18T04:19:53;102487.72;;;-2.02;91.47
1207;BME280;593;53.184;8.216;2022-12-18T04:22:18;102481.31;;;-2.09;91.13
1207;BME280;593;53.184;8.216;2022-12-18T04:24:43;102482.84;;;-2.07;91.04
1207;BME280;593;53.184;8.216;2022-12-18T04:27:09;102482.63;;;-2.13;90.73
1207;BME280;593;53.184;8.216;2022-12-18T04:29:34;102515.38;;;-2.03;90.58
1207;BME280;593;53.184;8.216;2022-12-18T04:31:59;102509.34;;;-2.05;90.80
1207;BME280;593;53.184;8.216;2022-12-18T04:34:24;102516.66;;;-2.07;91.01
1207;BME280;593;53.184;8.216;2022-12-18T04:36:50;102520.31;;;-2.08;91.40
1207;BME280;593;53.184;8.216;2022-12-18T04:39:15;102518.81;;;-2.11;91.26
1207;BME280;593;53.184;8.216;2022-12-18T04:41:40;102508.38;;;-2.22;91.22
1207;BME280;593;53.184;8.216;2022-12-18T04:44:06;102525.72;;;-2.18;91.25
1207;BME280;593;53.184;8.216;2022-12-18T04:46:31;102518.06;;;-2.21;91.44
1207;BME280;593;53.184;8.216;2022-12-18T04:48:57;102517.03;;;-2.20;91.00
1207;BME280;593;53.184;8.216;2022-12-18T04:51:22;102511.88;;;-2.21;91.59
1207;BME280;593;53.184;8.216;2022-12-18T04:53:47;102514.84;;;-2.24;92.00
1207;BME280;593;53.184;8.216;2022-12-18T04:56:14;102509.34;;;-2.40;92.21
1207;BME280;593;53.184;8.216;2022-12-18T04:58:41;102528.47;;;-2.27;91.38
1207;BME280;593;53.184;8.216;2022-12-18T05:01:06;102506.25;;;-2.36;92.22
1207;BME280;593;53.184;8.216;2022-12-18T05:03:32;102533.94;;;-2.29;92.52
1207;BME280;593;53.184;8.216;2022-12-18T05:05:58;102533.13;;;-2.29;93.03
1207;BME280;593;53.184;8.216;2022-12-18T05:08:23;102541.09;;;-2.29;92.84
1207;BME280;593;53.184;8.216;2022-12-18T05:10:49;102549.25;;;-2.31;93.08
1207;BME280;593;53.184;8.216;2022-12-18T05:13:14;102544.91;;;-2.32;92.53
1207;BME280;593;53.184;8.216;2022-12-18T05:15:40;102545.75;;;-2.31;92.89
1207;BME280;593;53.184;8.216;2022-12-18T05:18:07;102551.22;;;-2.33;92.79
1207;BME280;593;53.184;8.216;2022-12-18T05:20:32;102529.31;;;-2.44;92.61
1207;BME280;593;53.184;8.216;2022-12-18T05:22:58;102536.16;;;-2.42;93.22
1207;BME280;593;53.184;8.216;2022-12-18T05:25:24;102537.50;;;-2.38;92.81
1207;BME280;593;53.184;8.216;2022-12-18T05:27:49;102540.19;;;-2.38;93.17
1207;BME280;593;53.184;8.216;2022-12-18T05:30:16;102533.50;;;-2.42;92.71
1207;BME280;593;53.184;8.216;2022-12-18T05:32:42;102536.44;;;-2.45;92.22
1207;BME280;593;53.184;8.216;2022-12-18T05:35:08;102543.00;;;-2.39;92.34
1207;BME280;593;53.184;8.216;2022-12-18T05:37:34;102534.25;;;-2.49;92.39
1207;BME280;593;53.184;8.216;2022-12-18T05:39:59;102548.63;;;-2.42;93.15
1207;BME280;593;53.184;8.216;2022-12-18T05:42:25;102540.41;;;-2.49;92.95
1207;BME280;593;53.184;8.216;2022-12-18T05:44:50;102540.25;;;-2.47;92.81
1207;BME280;593;53.184;8.216;2022-12-18T05:47:15;102545.75;;;-2.49;93.04
1207;BME280;593;53.184;8.216;2022-12-18T05:49:41;102544.06;;;-2.50;92.88
1207;BME280;593;53.184;8.216;2022-12-18T05:52:06;102546.88;;;-2.51;92.85
1207;BME280;593;53.184;8.216;2022-12-18T05:54:31;102532.63;;;-2.60;93.21
1207;BME280;593;53.184;8.216;2022-12-18T05:56:57;102545.88;;;-2.50;93.37
1207;BME280;593;53.184;8.216;2022-12-18T05:59:23;102541.84;;;-2.54;93.07
1207;BME280;593;53.184;8.216;2022-12-18T06:01:48;102543.06;;;-2.49;93.51
1207;BME280;593;53.184;8.216;2022-12-18T06:04:13;102548.41;;;-2.49;93.91
1207;BME280;593;53.184;8.216;2022-12-18T06:06:39;102551.19;;;-2.50;93.92
1207;BME280;593;53.184;8.216;2022-12-18T06:09:04;102535.94;;;-2.48;93.92
1207;BME280;593;53.184;8.216;2022-12-18T06:11:34;102550.59;;;-2.44;93.86
1207;BME280;593;53.184;8.216;2022-12-18T06:13:59;102554.41;;;-2.47;93.64
1207;BME280;593;53.184;8.216;2022-12-18T06:16:25;102559.91;;;-2.48;93.78
1207;BME280;593;53.184;8.216;2022-12-18T06:18:51;102556.53;;;-2.50;93.99
1207;BME280;593;53.184;8.216;2022-12-18T06:21:16;102555.53;;;-2.49;93.90
1207;BME280;593;53.184;8.216;2022-12-18T06:23:42;102550.38;;;-2.51;93.85
1207;BME280;593;53.184;8.216;2022-12-18T06:26:09;102551.81;;;-2.56;93.96
1207;BME280;593;53.184;8.216;2022-12-18T06:28:35;102544.03;;;-2.68;94.29
1207;BME280;593;53.184;8.216;2022-12-18T06:31:05;102559.66;;;-2.55;93.91
1207;BME280;593;53.184;8.216;2022-12-18T06:33:31;102553.78;;;-2.58;94.17
1207;BME280;593;53.184;8.216;2022-12-18T06:36:06;102546.09;;;-2.62;94.08
1207;BME280;593;53.184;8.216;2022-12-18T06:38:34;102557.31;;;-2.58;94.40
1207;BME280;593;53.184;8.216;2022-12-18T06:41:00;102541.22;;;-2.66;93.64
1207;BME280;593;53.184;8.216;2022-12-18T06:43:25;102560.41;;;-2.63;93.48
1207;BME280;593;53.184;8.216;2022-12-18T06:45:50;102567.25;;;-2.60;93.43
1207;BME280;593;53.184;8.216;2022-12-18T06:48:21;102562.25;;;-2.63;93.66
1207;BME280;593;53.184;8.216;2022-12-18T06:50:46;102567.69;;;-2.65;93.75
1207;BME280;593;53.184;8.216;2022-12-18T06:53:12;102560.16;;;-2.69;94.00
1207;BME280;593;53.184;8.216;2022-12-18T06:55:37;102578.50;;;-2.66;94.06
1207;BME280;593;53.184;8.216;2022-12-18T06:58:02;102562.28;;;-2.73;94.28
1207;BME280;593;53.184;8.216;2022-12-18T07:00:28;102580.31;;;-2.67;94.25
1207;BME280;593;53.184;8.216;2022-12-18T07:02:53;102555.59;;;-2.77;94.66
1207;BME280;593;53.184;8.216;2022-12-18T07:05:18;102578.81;;;-2.69;94.10
1207;BME280;593;53.184;8.216;2022-12-18T07:07:43;102567.06;;;-2.76;94.39
1207;BME280;593;53.184;8.216;2022-12-18T07:10:09;102574.16;;;-2.67;93.74
1207;BME280;593;53.184;8.216;2022-12-18T07:12:34;102565.09;;;-2.74;94.02
1207;BME280;593;53.184;8.216;2022-12-18T07:15:00;102572.34;;;-2.67;94.29
1207;BME280;593;53.184;8.216;2022-12-18T07:17:25;102563.00;;;-2.71;94.18
1207;BME280;593;53.184;8.216;2022-12-18T07:19:51;102548.44;;;-2.76;94.64
1207;BME280;593;53.184;8.216;2022-12-18T07:22:16;102557.66;;;-2.71;94.12
1207;BME280;593;53.184;8.216;2022-12-18T07:24:41;102568.16;;;-2.69;94.21
1207;BME280;593;53.184;8.216;2022-12-18T07:27:06;102560.84;;;-2.67;94.09
1207;BME280;593;53.184;8.216;2022-12-18T07:29:32;102558.63;;;-2.72;94.20
1207;BME280;593;53.184;8.216;2022-12-18T07:31:57;102565.31;;;-2.68;94.06
1207;BME280;593;53.184;8.216;2022-12-18T07:34:22;102554.75;;;-2.77;94.04
1207;BME280;593;53.184;8.216;2022-12-18T07:36:48;102570.25;;;-2.73;94.49
1207;BME280;593;53.184;8.216;2022-12-18T07:39:13;102561.75;;;-2.76;94.24
1207;BME280;593;53.184;8.216;2022-12-18T07:41:39;102557.50;;;-2.69;93.52
1207;BME280;593;53.184;8.216;2022-12-18T07:44:09;102541.97;;;-2.74;93.76
1207;BME280;593;53.184;8.216;2022-12-18T07:46:35;102544.38;;;-2.80;93.43
1207;BME280;593;53.184;8.216;2022-12-18T07:49:00;102555.03;;;-2.80;93.39
1207;BME280;593;53.184;8.216;2022-12-18T07:51:25;102562.88;;;-2.79;94.11
1207;BME280;593;53.184;8.216;2022-12-18T07:53:51;102553.44;;;-2.91;93.83
1207;BME280;593;53.184;8.216;2022-12-18T07:56:16;102560.69;;;-2.83;94.04
1207;BME280;593;53.184;8.216;2022-12-18T07:58:41;102563.00;;;-2.80;93.75
1207;BME280;593;53.184;8.216;2022-12-18T08:01:09;102562.19;;;-2.81;93.94
1207;BME280;593;53.184;8.216;2022-12-18T08:03:36;102551.69;;;-2.82;93.97
1207;BME280;593;53.184;8.216;2022-12-18T08:06:03;102537.97;;;-2.87;93.89
1207;BME280;593;53.184;8.216;2022-12-18T08:08:30;102545.69;;;-2.84;93.75
1207;BME280;593;53.184;8.216;2022-12-18T08:10:56;102557.47;;;-2.87;94.38
1207;BME280;593;53.184;8.216;2022-12-18T08:13:21;102537.88;;;-2.95;94.39
1207;BME280;593;53.184;8.216;2022-12-18T08:16:05;102550.84;;;-2.83;94.71
1207;BME280;593;53.184;8.216;2022-12-18T08:18:32;102549.19;;;-2.84;94.44
1207;BME280;593;53.184;8.216;2022-12-18T08:20:58;102555.88;;;-2.80;94.92
1207;BME280;593;53.184;8.216;2022-12-18T08:23:23;102541.31;;;-2.85;95.21
1207;BME280;593;53.184;8.216;2022-12-18T08:25:48;102545.91;;;-2.78;95.36
1207;BME280;593;53.184;8.216;2022-12-18T08:28:14;102555.03;;;-2.80;95.75
1207;BME280;593;53.184;8.216;2022-12-18T08:30:40;102534.19;;;-2.85;95.51
1207;BME280;593;53.184;8.216;2022-12-18T08:33:05;102533.59;;;-2.79;96.03
1207;BME280;593;53.184;8.216;2022-12-18T08:35:35;102539.31;;;-2.74;96.16
1207;BME280;593;53.184;8.216;2022-12-18T08:38:01;102543.81;;;-2.74;96.62
1207;BME280;593;53.184;8.216;2022-12-18T08:40:26;102541.31;;;-2.76;96.78
1207;BME280;593;53.184;8.216;2022-12-18T08:42:52;102533.44;;;-2.77;97.16
1207;BME280;593;53.184;8.216;2022-12-18T08:45:35;102541.22;;;-2.66;96.98
1207;BME280;593;53.184;8.216;2022-12-18T08:48:01;102499.19;;;-2.90;97.41
1207;BME280;593;53.184;8.216;2022-12-18T08:50:26;102543.06;;;-2.67;97.71
1207;BME280;593;53.184;8.216;2022-12-18T08:52:51;102546.50;;;-2.56;98.30
1207;BME280;593;53.184;8.216;2022-12-18T08:55:16;102549.84;;;-2.54;98.81
1207;BME280;593;53.184;8.216;2022-12-18T08:57:42;102551.81;;;-2.56;99.04
1207;BME280;593;53.184;8.216;2022-12-18T09:00:08;102559.06;;;-2.49;99.76
1207;BME280;593;53.184;8.216;2022-12-18T09:02:33;102559.91;;;-2.48;99.89
1207;BME280;593;53.184;8.216;2022-12-18T09:04:58;102565.53;;;-2.51;99.81
1207;BME280;593;53.184;8.216;2022-12-18T09:07:23;102568.41;;;-2.45;100.00
1207;BME280;593;53.184;8.216;2022-12-18T09:09:49;102572.22;;;-2.47;100.00
1207;BME280;593;53.184;8.216;2022-12-18T09:12:14;102563.25;;;-2.46;100.00
1207;BME280;593;53.184;8.216;2022-12-18T09:14:39;102574.81;;;-2.38;100.00
1207;BME280;593;53.184;8.216;2022-12-18T09:17:05;102589.75;;;-2.27;100.00
1207;BME280;593;53.184;8.216;2022-12-18T09:19:30;102573.44;;;-2.24;100.00
1207;BME280;593;53.184;8.216;2022-12-18T09:21:56;102572.16;;;-2.20;100.00
1207;BME280;593;53.184;8.216;2022-12-18T09:24:21;102568.50;;;-2.19;100.00
1207;BME280;593;53.184;8.216;2022-12-18T09:26:47;102579.38;;;-2.13;100.00
1207;BME280;593;53.184;8.216;2022-12-18T09:29:12;102574.22;;;-2.14;100.00
1207;BME280;593;53.184;8.216;2022-12-18T09:31:38;102574.44;;;-2.08;100.00
1207;BME280;593;53.184;8.216;2022-12-18T09:34:05;102585.63;;;-2.04;100.00
1207;BME280;593;53.184;8.216;2022-12-18T09:36:31;102560.91;;;-2.14;100.00
1207;BME280;593;53.184;8.216;2022-12-18T09:38:56;102573.00;;;-2.02;100.00
1207;BME280;593;53.184;8.216;2022-12-18T09:44:32;102590.88;;;-1.95;100.00
1207;BME280;593;53.184;8.216;2022-12-18T09:47:10;102586.41;;;-1.94;100.00
1207;BME280;593;53.184;8.216;2022-12-18T09:49:47;102584.13;;;-1.89;100.00
1207;BME280;593;53.184;8.216;2022-12-18T09:52:37;102579.31;;;-1.85;100.00
1207;BME280;593;53.184;8.216;2022-12-18T09:55:36;102581.16;;;-1.86;100.00
1207;BME280;593;53.184;8.216;2022-12-18T09:58:10;102569.25;;;-1.91;100.00
1207;BME280;593;53.184;8.216;2022-12-18T10:00:41;102580.97;;;-1.84;100.00
1207;BME280;593;53.184;8.216;2022-12-18T10:03:11;102584.69;;;-1.77;100.00
1207;BME280;593;53.184;8.216;2022-12-18T10:08:44;102583.09;;;-1.70;100.00
1207;BME280;593;53.184;8.216;2022-12-18T10:19:42;102554.50;;;-1.60;100.00
1207;BME280;593;53.184;8.216;2022-12-18T10:22:53;102556.72;;;-1.56;100.00
1207;BME280;593;53.184;8.216;2022-12-18T10:25:26;102542.22;;;-1.53;100.00
1207;BME280;593;53.184;8.216;2022-12-18T10:27:58;102548.06;;;-1.50;100.00
1207;BME280;593;53.184;8.216;2022-12-18T10:30:25;102538.03;;;-1.56;100.00
1207;BME280;593;53.184;8.216;2022-12-18T10:32:51;102544.09;;;-1.46;100.00
1207;BME280;593;53.184;8.216;2022-12-18T10:35:25;102548.28;;;-1.43;100.00
1207;BME280;593;53.184;8.216;2022-12-18T10:38:19;102548.78;;;-1.40;100.00
1207;BME280;593;53.184;8.216;2022-12-18T10:41:02;102542.97;;;-1.43;100.00
1207;BME280;593;53.184;8.216;2022-12-18T10:43:30;102535.16;;;-1.37;100.00
1207;BME280;593;53.184;8.216;2022-12-18T10:48:31;102520.81;;;-1.36;100.00
1207;BME280;593;53.184;8.216;2022-12-18T10:50:58;102516.16;;;-1.34;100.00
1207;BME280;593;53.184;8.216;2022-12-18T10:53:26;102531.19;;;-1.24;100.00
1207;BME280;593;53.184;8.216;2022-12-18T10:55:54;102521.19;;;-1.22;100.00
1207;BME280;593;53.184;8.216;2022-12-18T10:58:30;102524.22;;;-1.17;100.00
1207;BME280;593;53.184;8.216;2022-12-18T11:06:52;102506.91;;;-1.13;100.00
1207;BME280;593;53.184;8.216;2022-12-18T11:09:20;102499.06;;;-1.15;100.00
1207;BME280;593;53.184;8.216;2022-12-18T11:11:54;102504.75;;;-1.10;100.00
1207;BME280;593;53.184;8.216;2022-12-18T11:14:33;102495.75;;;-1.09;100.00
1207;BME280;593;53.184;8.216;2022-12-18T11:17:00;102491.28;;;-1.00;100.00
1207;BME280;593;53.184;8.216;2022-12-18T11:19:36;102486.94;;;-1.01;100.00
1207;BME280;593;53.184;8.216;2022-12-18T11:22:20;102488.28;;;-0.97;100.00
1207;BME280;593;53.184;8.216;2022-12-18T11:25:16;102495.81;;;-0.93;100.00
1207;BME280;593;53.184;8.216;2022-12-18T11:27:52;102488.31;;;-0.89;100.00
1207;BME280;593;53.184;8.216;2022-12-18T11:30:25;102480.63;;;-0.84;100.00
1207;BME280;593;53.184;8.216;2022-12-18T11:33:18;102481.31;;;-0.82;100.00
1207;BME280;593;53.184;8.216;2022-12-18T11:38:20;102461.44;;;-0.80;100.00
1207;BME280;593;53.184;8.216;2022-12-18T11:40:54;102451.94;;;-0.74;100.00
1207;BME280;593;53.184;8.216;2022-12-18T11:43:35;102445.63;;;-0.73;100.00
1207;BME280;593;53.184;8.216;2022-12-18T11:46:16;102447.94;;;-0.70;100.00
1207;BME280;593;53.184;8.216;2022-12-18T11:48:57;102441.44;;;-0.68;100.00
1207;BME280;593;53.184;8.216;2022-12-18T11:51:32;102435.94;;;-0.66;100.00
1207;BME280;593;53.184;8.216;2022-12-18T11:54:00;102435.28;;;-0.60;100.00
1207;BME280;593;53.184;8.216;2022-12-18T11:56:53;102429.94;;;-0.60;100.00
1207;BME280;593;53.184;8.216;2022-12-18T11:59:29;102432.78;;;-0.53;100.00
1207;BME280;593;53.184;8.216;2022-12-18T12:04:56;102430.44;;;-0.48;100.00
1207;BME280;593;53.184;8.216;2022-12-18T12:07:33;102413.56;;;-0.49;100.00
1207;BME280;593;53.184;8.216;2022-12-18T12:10:24;102407.91;;;-0.54;100.00
1207;BME280;593;53.184;8.216;2022-12-18T12:15:36;102415.41;;;-0.41;100.00
1207;BME280;593;53.184;8.216;2022-12-18T12:31:58;102392.34;;;-0.34;100.00
1207;BME280;593;53.184;8.216;2022-12-18T12:34:34;102399.38;;;-0.33;100.00
1207;BME280;593;53.184;8.216;2022-12-18T12:39:44;102363.97;;;-0.43;100.00
1207;BME280;593;53.184;8.216;2022-12-18T12:42:31;102385.19;;;-0.26;100.00
1207;BME280;593;53.184;8.216;2022-12-18T12:45:27;102378.00;;;-0.25;100.00
1207;BME280;593;53.184;8.216;2022-12-18T12:47:54;102356.44;;;-0.32;100.00
1207;BME280;593;53.184;8.216;2022-12-18T12:50:21;102366.78;;;-0.21;100.00
1207;BME280;593;53.184;8.216;2022-12-18T12:55:21;102359.75;;;-0.22;100.00
1207;BME280;593;53.184;8.216;2022-12-18T13:00:25;102362.44;;;-0.14;100.00
1207;BME280;593;53.184;8.216;2022-12-18T13:05:54;102360.09;;;-0.17;100.00
1207;BME280;593;53.184;8.216;2022-12-18T13:08:28;102349.72;;;-0.12;100.00
1207;BME280;593;53.184;8.216;2022-12-18T13:10:55;102338.38;;;-0.14;100.00
1207;BME280;593;53.184;8.216;2022-12-18T13:16:19;102331.19;;;-0.13;100.00
1207;BME280;593;53.184;8.216;2022-12-18T13:18:49;102329.34;;;-0.13;100.00
1207;BME280;593;53.184;8.216;2022-12-18T13:21:25;102331.00;;;-0.12;100.00
1207;BME280;593;53.184;8.216;2022-12-18T13:23:52;102320.66;;;-0.15;100.00
1207;BME280;593;53.184;8.216;2022-12-18T13:31:13;102314.81;;;-0.10;100.00
1207;BME280;593;53.184;8.216;2022-12-18T13:33:44;102306.81;;;-0.18;100.00
1207;BME280;593;53.184;8.216;2022-12-18T13:41:39;102300.75;;;-0.12;100.00
1207;BME280;593;53.184;8.216;2022-12-18T13:44:12;102300.44;;;-0.17;100.00
1207;BME280;593;53.184;8.216;2022-12-18T13:46:49;102284.59;;;-0.19;100.00
1207;BME280;593;53.184;8.216;2022-12-18T13:49:37;102298.44;;;-0.15;100.00
1207;BME280;593;53.184;8.216;2022-12-18T13:52:18;102307.28;;;-0.15;100.00
1207;BME280;593;53.184;8.216;2022-12-18T13:54:49;102308.13;;;-0.14;100.00
1207;BME280;593;53.184;8.216;2022-12-18T13:57:32;102301.59;;;-0.12;100.00
1207;BME280;593;53.184;8.216;2022-12-18T13:59:59;102294.41;;;-0.11;100.00
1207;BME280;593;53.184;8.216;2022-12-18T14:02:45;102276.03;;;-0.14;100.00
1207;BME280;593;53.184;8.216;2022-12-18T14:05:43;102280.88;;;-0.10;100.00
1207;BME280;593;53.184;8.216;2022-12-18T14:08:13;102283.72;;;-0.11;100.00
1207;BME280;593;53.184;8.216;2022-12-18T14:10:45;102278.19;;;-0.10;100.00
1207;BME280;593;53.184;8.216;2022-12-18T14:13:24;102278.19;;;-0.10;100.00
1207;BME280;593;53.184;8.216;2022-12-18T14:15:52;102270.69;;;-0.14;100.00
1207;BME280;593;53.184;8.216;2022-12-18T14:18:21;102270.47;;;-0.05;100.00
1207;BME280;593;53.184;8.216;2022-12-18T14:20:50;102266.31;;;-0.07;100.00
1207;BME280;593;53.184;8.216;2022-12-18T14:23:36;102257.81;;;-0.11;100.00
1207;BME280;593;53.184;8.216;2022-12-18T14:26:18;102256.16;;;-0.12;100.00
1207;BME280;593;53.184;8.216;2022-12-18T14:28:44;102252.16;;;-0.16;100.00
1207;BME280;593;53.184;8.216;2022-12-18T14:31:17;102264.34;;;-0.13;100.00
1207;BME280;593;53.184;8.216;2022-12-18T14:33:43;102266.69;;;-0.10;100.00
1207;BME280;593;53.184;8.216;2022-12-18T14:36:16;102252.28;;;-0.09;100.00
1207;BME280;593;53.184;8.216;2022-12-18T14:38:41;102239.78;;;-0.17;100.00
1207;BME280;593;53.184;8.216;2022-12-18T14:41:12;102244.47;;;-0.19;100.00
1207;BME280;593;53.184;8.216;2022-12-18T14:43:40;102249.81;;;-0.11;100.00
1207;BME280;593;53.184;8.216;2022-12-18T14:46:26;102252.13;;;-0.08;100.00
1207;BME280;593;53.184;8.216;2022-12-18T14:48:53;102248.44;;;-0.07;100.00
1207;BME280;593;53.184;8.216;2022-12-18T14:51:21;102237.09;;;-0.09;100.00
1207;BME280;593;53.184;8.216;2022-12-18T14:53:53;102240.25;;;-0.05;100.00
1207;BME280;593;53.184;8.216;2022-12-18T14:56:24;102235.56;;;-0.03;100.00
1207;BME280;593;53.184;8.216;2022-12-18T14:58:56;102227.69;;;-0.05;100.00
1207;BME280;593;53.184;8.216;2022-12-18T15:01:33;102226.53;;;-0.02;100.00